sensor_id;sensor_type;location;lat;lon;timestamp;pressure;altitude;pressure_sealevel;temperature;humidity
66486;BME280;53303;47.476;8.084;2023-11-18T00:00:19;96164.03;;;18.61;47.86
66486;BME280;53303;47.476;8.084;2023-11-18T00:02:47;96170.03;;;18.60;48.06
66486;BME280;53303;47.476;8.084;2023-11-18T00:05:12;96165.25;;;18.60;47.90
66486;BME280;53303;47.476;8.084;2023-11-18T00:07:41;96171.56;;;18.61;48.11
66486;BME280;53303;47.476;8.084;2023-11-18T00:10:06;96170.97;;;18.57;47.99
66486;BME280;53303;47.476;8.084;2023-11-18T00:12:34;96169.06;;;18.63;47.91
66486;BME280;53303;47.476;8.084;2023-11-18T00:15:05;96173.06;;;18.62;48.05
66486;BME280;53303;47.476;8.084;2023-11-18T00:17:36;96163.47;;;18.57;48.06
66486;BME280;53303;47.476;8.084;2023-11-18T00:20:01;96159.72;;;18.60;48.14
66486;BME280;53303;47.476;8.084;2023-11-18T00:22:28;96155.44;;;18.59;47.97
66486;BME280;53303;47.476;8.084;2023-11-18T00:24:54;96160.97;;;18.59;48.26
66486;BME280;53303;47.476;8.084;2023-11-18T00:27:20;96152.97;;;18.61;48.35
66486;BME280;53303;47.476;8.084;2023-11-18T00:29:48;96152.88;;;18.56;48.19
66486;BME280;53303;47.476;8.084;2023-11-18T00:32:13;96167.06;;;18.63;48.24
66486;BME280;53303;47.476;8.084;2023-11-18T00:34:38;96172.78;;;18.60;48.03
66486;BME280;53303;47.476;8.084;2023-11-18T00:37:04;96149.19;;;18.44;48.47
66486;BME280;53303;47.476;8.084;2023-11-18T00:39:29;96166.97;;;18.58;48.45
66486;BME280;53303;47.476;8.084;2023-11-18T00:41:55;96164.03;;;18.61;48.44
66486;BME280;53303;47.476;8.084;2023-11-18T00:44:23;96164.31;;;18.63;48.40
66486;BME280;53303;47.476;8.084;2023-11-18T00:46:49;96158.03;;;18.63;48.55
66486;BME280;53303;47.476;8.084;2023-11-18T00:49:14;96153.25;;;18.63;48.49
66486;BME280;53303;47.476;8.084;2023-11-18T00:51:45;96137.81;;;18.57;48.24
66486;BME280;53303;47.476;8.084;2023-11-18T00:54:10;96156.75;;;18.64;48.37
66486;BME280;53303;47.476;8.084;2023-11-18T00:56:37;96159.44;;;18.58;48.63
66486;BME280;53303;47.476;8.084;2023-11-18T00:59:03;96161.72;;;18.60;48.67
66486;BME280;53303;47.476;8.084;2023-11-18T01:01:31;96164.31;;;18.63;48.40
66486;BME280;53303;47.476;8.084;2023-11-18T01:03:57;96174.59;;;18.63;48.48
66486;BME280;53303;47.476;8.084;2023-11-18T01:06:27;96154.66;;;18.59;48.60
66486;BME280;53303;47.476;8.084;2023-11-18T01:08:52;96154.66;;;18.59;48.56
66486;BME280;53303;47.476;8.084;2023-11-18T01:11:18;96153.91;;;18.58;48.65
66486;BME280;53303;47.476;8.084;2023-11-18T01:13:50;96162.00;;;18.62;48.72
66486;BME280;53303;47.476;8.084;2023-11-18T01:16:20;96165.94;;;18.55;48.59
66486;BME280;53303;47.476;8.084;2023-11-18T01:18:49;96162.50;;;18.60;48.64
66486;BME280;53303;47.476;8.084;2023-11-18T01:21:18;96152.88;;;18.56;48.72
66486;BME280;53303;47.476;8.084;2023-11-18T01:23:46;96159.72;;;18.60;48.72
66486;BME280;53303;47.476;8.084;2023-11-18T01:26:12;96155.66;;;18.56;48.83
66486;BME280;53303;47.476;8.084;2023-11-18T01:28:43;96156.69;;;18.58;48.61
66486;BME280;53303;47.476;8.084;2023-11-18T01:31:10;96163.94;;;18.56;48.61
66486;BME280;53303;47.476;8.084;2023-11-18T01:33:37;96163.28;;;18.61;48.70
66486;BME280;53303;47.476;8.084;2023-11-18T01:36:05;96164.13;;;18.52;48.75
66486;BME280;53303;47.476;8.084;2023-11-18T01:38:31;96165.72;;;18.59;48.72
66486;BME280;53303;47.476;8.084;2023-11-18T01:40:59;96176.03;;;18.58;48.79
66486;BME280;53303;47.476;8.084;2023-11-18T01:43:30;96171.44;;;18.55;48.73
66486;BME280;53303;47.476;8.084;2023-11-18T01:45:59;96169.94;;;18.54;48.89
66486;BME280;53303;47.476;8.084;2023-11-18T01:48:28;96169.66;;;18.52;48.95
66486;BME280;53303;47.476;8.084;2023-11-18T01:50:56;96174.03;;;18.59;48.85
66486;BME280;53303;47.476;8.084;2023-11-18T01:53:23;96167.19;;;18.54;48.80
66486;BME280;53303;47.476;8.084;2023-11-18T01:55:49;96166.91;;;18.52;49.00
66486;BME280;53303;47.476;8.084;2023-11-18T01:58:17;96174.53;;;18.57;48.78
66486;BME280;53303;47.476;8.084;2023-11-18T02:00:46;96163.34;;;18.52;49.05
66486;BME280;53303;47.476;8.084;2023-11-18T02:03:12;96167.19;;;18.54;48.96
66486;BME280;53303;47.476;8.084;2023-11-18T02:05:38;96174.53;;;18.57;48.93
66486;BME280;53303;47.476;8.084;2023-11-18T02:08:04;96170.97;;;18.57;48.91
66486;BME280;53303;47.476;8.084;2023-11-18T02:13:24;96156.31;;;18.51;49.05
66486;BME280;53303;47.476;8.084;2023-11-18T02:15:56;96164.13;;;18.52;48.84
66486;BME280;53303;47.476;8.084;2023-11-18T02:18:26;96147.25;;;18.50;48.98
66486;BME280;53303;47.476;8.084;2023-11-18T02:20:55;96139.81;;;18.56;48.94
66486;BME280;53303;47.476;8.084;2023-11-18T02:23:28;96150.59;;;18.54;49.01
66486;BME280;53303;47.476;8.084;2023-11-18T02:25:53;96144.50;;;18.50;49.00
66486;BME280;53303;47.476;8.084;2023-11-18T02:28:21;96135.91;;;18.48;49.07
66486;BME280;53303;47.476;8.084;2023-11-18T02:30:46;96142.03;;;18.52;48.96
66486;BME280;53303;47.476;8.084;2023-11-18T02:38:30;96151.75;;;18.48;48.93
66486;BME280;53303;47.476;8.084;2023-11-18T02:40:59;96154.03;;;18.49;49.12
66486;BME280;53303;47.476;8.084;2023-11-18T02:43:30;96147.16;;;18.44;48.97
66486;BME280;53303;47.476;8.084;2023-11-18T02:45:56;96151.81;;;18.53;48.84
66486;BME280;53303;47.476;8.084;2023-11-18T02:48:22;96151.28;;;18.49;49.17
66486;BME280;53303;47.476;8.084;2023-11-18T02:50:49;96148.78;;;18.51;49.35
66486;BME280;53303;47.476;8.084;2023-11-18T02:53:14;96135.16;;;18.48;49.04
66486;BME280;53303;47.476;8.084;2023-11-18T02:55:42;96138.22;;;18.50;49.00
66486;BME280;53303;47.476;8.084;2023-11-18T02:58:08;96122.88;;;18.49;49.00
66486;BME280;53303;47.476;8.084;2023-11-18T03:00:34;96126.13;;;18.47;49.10
66486;BME280;53303;47.476;8.084;2023-11-18T03:02:59;96127.44;;;18.52;49.44
66486;BME280;53303;47.476;8.084;2023-11-18T03:05:24;96118.88;;;18.50;49.22
66486;BME280;53303;47.476;8.084;2023-11-18T03:07:51;96121.16;;;18.51;49.15
66486;BME280;53303;47.476;8.084;2023-11-18T03:10:19;96132.22;;;18.51;49.09
66486;BME280;53303;47.476;8.084;2023-11-18T03:12:51;96127.34;;;18.46;49.00
66486;BME280;53303;47.476;8.084;2023-11-18T03:15:20;96148.78;;;18.51;49.14
66486;BME280;53303;47.476;8.084;2023-11-18T03:17:47;96146.03;;;18.51;49.18
66486;BME280;53303;47.476;8.084;2023-11-18T03:20:16;96154.31;;;18.51;49.22
66486;BME280;53303;47.476;8.084;2023-11-18T03:22:48;96158.31;;;18.50;49.13
66486;BME280;53303;47.476;8.084;2023-11-18T03:25:15;96157.84;;;18.52;49.49
66486;BME280;53303;47.476;8.084;2023-11-18T03:27:43;96155.06;;;18.52;49.17
66486;BME280;53303;47.476;8.084;2023-11-18T03:30:12;96140.97;;;18.50;49.17
66486;BME280;53303;47.476;8.084;2023-11-18T03:32:38;96128.88;;;18.47;49.27
66486;BME280;53303;47.476;8.084;2023-11-18T03:35:06;96134.97;;;18.51;49.24
66486;BME280;53303;47.476;8.084;2023-11-18T03:37:35;96128.88;;;18.47;49.21
66486;BME280;53303;47.476;8.084;2023-11-18T03:40:14;96141.72;;;18.50;49.25
66486;BME280;53303;47.476;8.084;2023-11-18T03:42:43;96123.63;;;18.49;49.16
66486;BME280;53303;47.476;8.084;2023-11-18T03:45:11;96122.78;;;18.43;49.40
66486;BME280;53303;47.476;8.084;2023-11-18T03:47:37;96135.91;;;18.48;49.29
66486;BME280;53303;47.476;8.084;2023-11-18T03:50:02;96139.66;;;18.45;49.38
66486;BME280;53303;47.476;8.084;2023-11-18T03:52:28;96147.94;;;18.45;49.13
66486;BME280;53303;47.476;8.084;2023-11-18T03:54:54;96149.75;;;18.48;49.20
66486;BME280;53303;47.476;8.084;2023-11-18T03:57:20;96134.53;;;18.38;49.23
66486;BME280;53303;47.476;8.084;2023-11-18T03:59:46;96136.03;;;18.39;49.29
66486;BME280;53303;47.476;8.084;2023-11-18T04:02:14;96150.41;;;18.43;49.17
66486;BME280;53303;47.476;8.084;2023-11-18T04:04:39;96138.03;;;18.38;49.23
66486;BME280;53303;47.476;8.084;2023-11-18T04:07:07;96151.94;;;18.44;49.26
66486;BME280;53303;47.476;8.084;2023-11-18T04:09:35;96142.13;;;18.43;49.53
66486;BME280;53303;47.476;8.084;2023-11-18T04:12:00;96140.69;;;18.48;49.38
66486;BME280;53303;47.476;8.084;2023-11-18T04:14:28;96138.31;;;18.40;49.30
66486;BME280;53303;47.476;8.084;2023-11-18T04:16:53;96136.91;;;18.45;49.14
66486;BME280;53303;47.476;8.084;2023-11-18T04:19:20;96130.59;;;18.44;49.34
66486;BME280;53303;47.476;8.084;2023-11-18T04:21:47;96147.44;;;18.46;49.25
66486;BME280;53303;47.476;8.084;2023-11-18T04:24:14;96090.75;;;18.01;49.28
66486;BME280;53303;47.476;8.084;2023-11-18T04:26:40;96141.38;;;18.42;49.41
66486;BME280;53303;47.476;8.084;2023-11-18T04:29:08;96137.84;;;18.42;49.35
66486;BME280;53303;47.476;8.084;2023-11-18T04:31:34;96156.53;;;18.47;49.21
66486;BME280;53303;47.476;8.084;2023-11-18T04:33:59;96147.94;;;18.45;49.25
66486;BME280;53303;47.476;8.084;2023-11-18T04:36:25;96152.97;;;18.46;49.12
66486;BME280;53303;47.476;8.084;2023-11-18T04:38:52;96161.25;;;18.46;49.21
66486;BME280;53303;47.476;8.084;2023-11-18T04:41:17;96163.75;;;18.44;49.26
66486;BME280;53303;47.476;8.084;2023-11-18T04:43:42;96156.13;;;18.39;49.36
66486;BME280;53303;47.476;8.084;2023-11-18T04:46:08;96159.75;;;18.45;49.33
66486;BME280;53303;47.476;8.084;2023-11-18T04:48:34;96134.72;;;18.34;49.59
66486;BME280;53303;47.476;8.084;2023-11-18T04:51:02;96134.34;;;18.41;49.36
66486;BME280;53303;47.476;8.084;2023-11-18T04:53:28;96140.81;;;18.38;49.33
66486;BME280;53303;47.476;8.084;2023-11-18T04:55:53;96129.56;;;18.42;49.38
66486;BME280;53303;47.476;8.084;2023-11-18T04:58:19;96124.22;;;18.38;49.21
66486;BME280;53303;47.476;8.084;2023-11-18T05:00:44;96113.28;;;18.29;49.23
66486;BME280;53303;47.476;8.084;2023-11-18T05:03:10;96129.84;;;18.44;49.33
66486;BME280;53303;47.476;8.084;2023-11-18T05:05:39;96116.69;;;18.39;49.35
66486;BME280;53303;47.476;8.084;2023-11-18T05:08:05;96108.41;;;18.39;49.57
66486;BME280;53303;47.476;8.084;2023-11-18T05:10:34;96095.53;;;18.36;49.21
66486;BME280;53303;47.476;8.084;2023-11-18T05:13:00;96100.31;;;18.35;49.25
66486;BME280;53303;47.476;8.084;2023-11-18T05:15:28;96102.59;;;18.37;49.45
66486;BME280;53303;47.476;8.084;2023-11-18T05:17:55;96124.03;;;18.42;49.27
66486;BME280;53303;47.476;8.084;2023-11-18T05:20:21;96121.28;;;18.42;49.34
66486;BME280;53303;47.476;8.084;2023-11-18T05:22:47;96113.72;;;18.42;49.27
66486;BME280;53303;47.476;8.084;2023-11-18T05:25:13;96105.91;;;18.41;49.35
66486;BME280;53303;47.476;8.084;2023-11-18T05:27:40;96112.44;;;18.38;49.50
66486;BME280;53303;47.476;8.084;2023-11-18T05:30:07;96096.53;;;18.33;49.30
66486;BME280;53303;47.476;8.084;2023-11-18T05:32:36;96097.63;;;18.41;49.36
66486;BME280;53303;47.476;8.084;2023-11-18T05:35:03;96098.41;;;18.41;49.27
66486;BME280;53303;47.476;8.084;2023-11-18T05:37:32;96077.66;;;18.31;49.35
66486;BME280;53303;47.476;8.084;2023-11-18T05:40:01;96099.63;;;18.40;49.32
66486;BME280;53303;47.476;8.084;2023-11-18T05:42:33;96104.41;;;18.40;49.35
66486;BME280;53303;47.476;8.084;2023-11-18T05:45:05;96101.84;;;18.36;49.31
66486;BME280;53303;47.476;8.084;2023-11-18T05:47:35;96104.41;;;18.40;49.31
66486;BME280;53303;47.476;8.084;2023-11-18T05:50:00;96088.22;;;18.33;49.44
66486;BME280;53303;47.476;8.084;2023-11-18T05:52:26;96097.34;;;18.39;49.36
66486;BME280;53303;47.476;8.084;2023-11-18T05:54:52;96103.34;;;18.37;49.23
66486;BME280;53303;47.476;8.084;2023-11-18T05:57:18;96110.63;;;18.35;49.47
66486;BME280;53303;47.476;8.084;2023-11-18T05:59:46;96115.59;;;18.31;49.43
66486;BME280;53303;47.476;8.084;2023-11-18T06:02:13;96122.41;;;18.35;49.50
66486;BME280;53303;47.476;8.084;2023-11-18T06:04:46;96104.22;;;18.29;49.33
66486;BME280;53303;47.476;8.084;2023-11-18T06:07:12;96102.59;;;18.37;49.48
66486;BME280;53303;47.476;8.084;2023-11-18T06:09:41;96109.66;;;18.38;49.37
66486;BME280;53303;47.476;8.084;2023-11-18T06:12:08;96108.13;;;18.37;49.39
66486;BME280;53303;47.476;8.084;2023-11-18T06:14:36;96087.44;;;18.32;49.48
66486;BME280;53303;47.476;8.084;2023-11-18T06:17:04;96053.59;;;18.17;49.43
66486;BME280;53303;47.476;8.084;2023-11-18T06:19:34;96073.84;;;18.29;49.37
66486;BME280;53303;47.476;8.084;2023-11-18T06:22:00;96085.19;;;18.31;49.31
66486;BME280;53303;47.476;8.084;2023-11-18T06:24:27;96090.22;;;18.32;49.43
66486;BME280;53303;47.476;8.084;2023-11-18T06:26:53;96101.84;;;18.36;49.55
66486;BME280;53303;47.476;8.084;2023-11-18T06:29:18;96098.31;;;18.36;49.38
66486;BME280;53303;47.476;8.084;2023-11-18T06:31:44;96095.75;;;18.32;49.38
66486;BME280;53303;47.476;8.084;2023-11-18T06:34:12;96093.19;;;18.29;49.30
66486;BME280;53303;47.476;8.084;2023-11-18T06:36:37;96091.19;;;18.29;49.43
66486;BME280;53303;47.476;8.084;2023-11-18T06:39:05;96109.34;;;18.36;49.29
66486;BME280;53303;47.476;8.084;2023-11-18T06:41:32;96101.78;;;18.31;49.51
66486;BME280;53303;47.476;8.084;2023-11-18T06:44:06;96114.13;;;18.35;49.40
66486;BME280;53303;47.476;8.084;2023-11-18T06:46:37;96100.44;;;18.26;49.48
66486;BME280;53303;47.476;8.084;2023-11-18T06:49:05;96094.44;;;18.27;49.34
66486;BME280;53303;47.476;8.084;2023-11-18T06:51:33;96092.69;;;18.30;49.18
66486;BME280;53303;47.476;8.084;2023-11-18T06:54:00;96098.03;;;18.34;49.43
66486;BME280;53303;47.476;8.084;2023-11-18T06:56:29;96117.38;;;18.34;49.41
66486;BME280;53303;47.476;8.084;2023-11-18T06:58:57;96102.72;;;18.27;49.46
66486;BME280;53303;47.476;8.084;2023-11-18T07:01:23;96117.56;;;18.30;49.52
66486;BME280;53303;47.476;8.084;2023-11-18T07:03:48;96118.63;;;18.33;49.56
66486;BME280;53303;47.476;8.084;2023-11-18T07:06:18;96114.81;;;18.30;49.59
66486;BME280;53303;47.476;8.084;2023-11-18T07:08:52;96111.84;;;18.34;49.43
66486;BME280;53303;47.476;8.084;2023-11-18T07:11:23;96111.28;;;18.30;49.50
66486;BME280;53303;47.476;8.084;2023-11-18T07:13:49;96112.50;;;18.29;49.33
66486;BME280;53303;47.476;8.084;2023-11-18T07:16:15;96111.00;;;18.27;49.46
66486;BME280;53303;47.476;8.084;2023-11-18T07:18:41;96120.13;;;18.34;49.32
66486;BME280;53303;47.476;8.084;2023-11-18T07:21:09;96119.56;;;18.30;49.06
66486;BME280;53303;47.476;8.084;2023-11-18T07:23:35;96122.88;;;18.34;48.67
66486;BME280;53303;47.476;8.084;2023-11-18T07:26:04;96113.28;;;18.29;48.31
66486;BME280;53303;47.476;8.084;2023-11-18T07:28:29;96129.09;;;18.29;48.18
66486;BME280;53303;47.476;8.084;2023-11-18T07:30:56;96129.69;;;18.33;46.54
66486;BME280;53303;47.476;8.084;2023-11-18T07:33:25;96138.44;;;18.31;46.16
66486;BME280;53303;47.476;8.084;2023-11-18T07:35:54;96135.97;;;18.18;45.70
66486;BME280;53303;47.476;8.084;2023-11-18T07:38:20;96147.03;;;18.18;45.85
66486;BME280;53303;47.476;8.084;2023-11-18T07:40:45;96152.63;;;18.24;45.34
66486;BME280;53303;47.476;8.084;2023-11-18T07:43:14;96138.75;;;18.18;44.85
66486;BME280;53303;47.476;8.084;2023-11-18T07:45:41;96130.16;;;18.16;44.67
66486;BME280;53303;47.476;8.084;2023-11-18T07:48:11;96130.25;;;18.22;44.68
66486;BME280;53303;47.476;8.084;2023-11-18T07:50:42;96117.59;;;18.15;44.63
66486;BME280;53303;47.476;8.084;2023-11-18T07:53:12;96122.16;;;18.18;44.79
66486;BME280;53303;47.476;8.084;2023-11-18T07:55:40;96123.41;;;18.17;44.73
66486;BME280;53303;47.476;8.084;2023-11-18T07:58:09;96117.31;;;18.13;44.76
66486;BME280;53303;47.476;8.084;2023-11-18T08:00:41;96121.31;;;18.12;45.01
66486;BME280;53303;47.476;8.084;2023-11-18T08:03:11;96124.63;;;18.16;45.21
66486;BME280;53303;47.476;8.084;2023-11-18T08:05:44;96130.34;;;18.13;44.88
66486;BME280;53303;47.476;8.084;2023-11-18T08:08:14;96124.06;;;18.12;45.10
66486;BME280;53303;47.476;8.084;2023-11-18T08:10:42;96128.56;;;18.10;45.30
66486;BME280;53303;47.476;8.084;2023-11-18T08:13:10;96141.19;;;18.16;45.18
66486;BME280;53303;47.476;8.084;2023-11-18T08:15:39;96122.84;;;18.13;45.49
66486;BME280;53303;47.476;8.084;2023-11-18T08:18:05;96130.94;;;18.17;45.63
66486;BME280;53303;47.476;8.084;2023-11-18T08:20:31;96121.03;;;18.10;45.74
66486;BME280;53303;47.476;8.084;2023-11-18T08:22:57;96127.59;;;18.13;45.78
66486;BME280;53303;47.476;8.084;2023-11-18T08:25:25;96120.06;;;18.13;45.74
66486;BME280;53303;47.476;8.084;2023-11-18T08:27:52;96103.97;;;18.12;45.69
66486;BME280;53303;47.476;8.084;2023-11-18T08:30:18;96098.72;;;18.14;45.85
66486;BME280;53303;47.476;8.084;2023-11-18T08:32:46;96106.06;;;18.17;45.96
66486;BME280;53303;47.476;8.084;2023-11-18T08:35:15;96088.25;;;18.18;45.71
66486;BME280;53303;47.476;8.084;2023-11-18T08:37:42;96074.44;;;18.18;46.15
66486;BME280;53303;47.476;8.084;2023-11-18T08:40:08;96079.94;;;18.18;46.05
66486;BME280;53303;47.476;8.084;2023-11-18T08:42:56;96079.19;;;18.17;46.04
66486;BME280;53303;47.476;8.084;2023-11-18T08:45:30;96081.50;;;18.19;46.14
66486;BME280;53303;47.476;8.084;2023-11-18T08:47:59;96098.06;;;18.19;46.22
66486;BME280;53303;47.476;8.084;2023-11-18T08:50:29;96093.97;;;18.14;46.39
66486;BME280;53303;47.476;8.084;2023-11-18T08:52:56;96089.22;;;18.15;46.43
66486;BME280;53303;47.476;8.084;2023-11-18T08:55:26;96092.81;;;18.21;46.37
66486;BME280;53303;47.476;8.084;2023-11-18T08:58:05;96079.00;;;18.21;46.53
66486;BME280;53303;47.476;8.084;2023-11-18T09:00:42;96069.88;;;18.15;46.55
66486;BME280;53303;47.476;8.084;2023-11-18T09:03:11;96075.69;;;18.17;46.51
66486;BME280;53303;47.476;8.084;2023-11-18T09:05:48;96086.06;;;18.22;46.64
66486;BME280;53303;47.476;8.084;2023-11-18T09:08:25;96084.53;;;18.21;46.61
66486;BME280;53303;47.476;8.084;2023-11-18T09:10:52;96076.72;;;18.19;46.72
66486;BME280;53303;47.476;8.084;2023-11-18T09:13:20;96077.28;;;18.23;46.91
66486;BME280;53303;47.476;8.084;2023-11-18T09:15:48;96068.44;;;18.19;46.99
66486;BME280;53303;47.476;8.084;2023-11-18T09:18:15;96070.16;;;18.17;46.78
66486;BME280;53303;47.476;8.084;2023-11-18T09:20:45;96074.22;;;18.21;46.92
66486;BME280;53303;47.476;8.084;2023-11-18T09:23:12;96072.53;;;18.24;46.98
66486;BME280;53303;47.476;8.084;2023-11-18T09:25:38;96062.91;;;18.19;47.05
66486;BME280;53303;47.476;8.084;2023-11-18T09:28:05;96076.53;;;18.23;46.89
66486;BME280;53303;47.476;8.084;2023-11-18T09:30:30;96084.06;;;18.22;47.00
66486;BME280;53303;47.476;8.084;2023-11-18T09:33:00;96078.25;;;18.20;47.03
66486;BME280;53303;47.476;8.084;2023-11-18T09:35:40;96077.78;;;18.22;46.86
66486;BME280;53303;47.476;8.084;2023-11-18T09:38:06;96079.75;;;18.21;47.23
66486;BME280;53303;47.476;8.084;2023-11-18T09:40:32;96084.34;;;18.24;47.01
66486;BME280;53303;47.476;8.084;2023-11-18T09:42:59;96088.72;;;18.16;47.03
66486;BME280;53303;47.476;8.084;2023-11-18T09:45:34;96128.81;;;18.26;47.18
66486;BME280;53303;47.476;8.084;2023-11-18T09:48:01;96125.56;;;18.28;47.45
66486;BME280;53303;47.476;8.084;2023-11-18T09:50:28;96122.34;;;18.30;47.23
66486;BME280;53303;47.476;8.084;2023-11-18T09:53:04;96109.75;;;18.29;47.02
66486;BME280;53303;47.476;8.084;2023-11-18T09:55:48;96103.94;;;18.26;47.27
66486;BME280;53303;47.476;8.084;2023-11-18T09:58:17;96105.75;;;18.30;47.35
66486;BME280;53303;47.476;8.084;2023-11-18T10:00:46;96089.84;;;18.24;47.33
66486;BME280;53303;47.476;8.084;2023-11-18T10:03:16;96107.78;;;18.29;47.35
66486;BME280;53303;47.476;8.084;2023-11-18T10:05:42;96106.50;;;18.30;47.52
66486;BME280;53303;47.476;8.084;2023-11-18T10:08:08;96100.50;;;18.32;47.50
66486;BME280;53303;47.476;8.084;2023-11-18T10:10:34;96108.25;;;18.27;47.26
66486;BME280;53303;47.476;8.084;2023-11-18T10:13:03;96106.03;;;18.32;47.49
66486;BME280;53303;47.476;8.084;2023-11-18T10:15:34;96100.72;;;18.28;47.38
66486;BME280;53303;47.476;8.084;2023-11-18T10:18:02;96113.56;;;18.31;47.44
66486;BME280;53303;47.476;8.084;2023-11-18T10:20:47;96104.03;;;18.32;47.51
66486;BME280;53303;47.476;8.084;2023-11-18T10:23:17;96088.72;;;18.31;47.68
66486;BME280;53303;47.476;8.084;2023-11-18T10:25:46;96081.44;;;18.34;47.61
66486;BME280;53303;47.476;8.084;2023-11-18T10:30:48;96075.84;;;18.28;47.85
66486;BME280;53303;47.476;8.084;2023-11-18T10:33:17;96081.19;;;18.32;47.79
66486;BME280;53303;47.476;8.084;2023-11-18T10:35:52;96094.50;;;18.33;47.71
66486;BME280;53303;47.476;8.084;2023-11-18T10:38:21;96085.66;;;18.29;47.98
66486;BME280;53303;47.476;8.084;2023-11-18T10:40:52;96091.28;;;18.35;47.80
66486;BME280;53303;47.476;8.084;2023-11-18T10:43:18;96082.91;;;18.29;47.83
66486;BME280;53303;47.476;8.084;2023-11-18T10:45:49;96087.19;;;18.30;47.76
66486;BME280;53303;47.476;8.084;2023-11-18T10:48:14;96095.53;;;18.36;47.91
66486;BME280;53303;47.476;8.084;2023-11-18T10:50:45;96090.81;;;18.36;47.87
66486;BME280;53303;47.476;8.084;2023-11-18T10:53:11;96078.41;;;18.32;47.82
66486;BME280;53303;47.476;8.084;2023-11-18T10:55:39;96089.53;;;18.37;47.87
66486;BME280;53303;47.476;8.084;2023-11-18T10:58:06;96093.09;;;18.38;47.87
66486;BME280;53303;47.476;8.084;2023-11-18T11:00:54;96091.94;;;18.30;47.91
66486;BME280;53303;47.476;8.084;2023-11-18T11:03:21;96100.50;;;18.32;48.15
66486;BME280;53303;47.476;8.084;2023-11-18T11:06:16;96102.81;;;18.33;48.15
66486;BME280;53303;47.476;8.084;2023-11-18T11:08:44;96094.22;;;18.31;48.08
66486;BME280;53303;47.476;8.084;2023-11-18T11:11:11;96103.34;;;18.37;48.19
66486;BME280;53303;47.476;8.084;2023-11-18T11:13:43;96096.31;;;18.36;48.42
66486;BME280;53303;47.476;8.084;2023-11-18T11:16:12;96078.63;;;18.28;48.11
66486;BME280;53303;47.476;8.084;2023-11-18T11:18:47;96090.53;;;18.34;48.18
66486;BME280;53303;47.476;8.084;2023-11-18T11:21:20;96098.09;;;18.39;48.20
66486;BME280;53303;47.476;8.084;2023-11-18T11:26:26;96099.38;;;18.38;48.18
66486;BME280;53303;47.476;8.084;2023-11-18T11:29:04;96102.13;;;18.38;48.19
66486;BME280;53303;47.476;8.084;2023-11-18T11:31:39;96090.81;;;18.36;48.18
66486;BME280;53303;47.476;8.084;2023-11-18T11:34:12;96090.03;;;18.36;48.14
66486;BME280;53303;47.476;8.084;2023-11-18T11:36:46;96097.06;;;18.37;48.32
66486;BME280;53303;47.476;8.084;2023-11-18T11:39:13;96104.63;;;18.36;48.28
66486;BME280;53303;47.476;8.084;2023-11-18T11:41:44;96103.63;;;18.39;48.25
66486;BME280;53303;47.476;8.084;2023-11-18T11:44:12;96091.56;;;18.37;48.07
66486;BME280;53303;47.476;8.084;2023-11-18T11:46:38;96078.13;;;18.30;48.43
66486;BME280;53303;47.476;8.084;2023-11-18T11:49:08;96085.56;;;18.38;48.45
66486;BME280;53303;47.476;8.084;2023-11-18T11:52:09;96097.56;;;18.35;48.39
66486;BME280;53303;47.476;8.084;2023-11-18T11:54:43;96079.16;;;18.32;48.24
66486;BME280;53303;47.476;8.084;2023-11-18T11:57:10;96087.25;;;18.36;48.13
66486;BME280;53303;47.476;8.084;2023-11-18T12:02:12;96083.84;;;18.26;48.66
66486;BME280;53303;47.476;8.084;2023-11-18T12:04:44;96078.88;;;18.30;48.36
66486;BME280;53303;47.476;8.084;2023-11-18T12:07:12;96065.56;;;18.29;48.33
66486;BME280;53303;47.476;8.084;2023-11-18T12:09:43;96063.66;;;18.35;48.48
66486;BME280;53303;47.476;8.084;2023-11-18T12:12:18;96069.16;;;18.35;48.51
66486;BME280;53303;47.476;8.084;2023-11-18T12:14:55;96057.84;;;18.33;48.46
66486;BME280;53303;47.476;8.084;2023-11-18T12:20:42;96052.31;;;18.33;48.56
66486;BME280;53303;47.476;8.084;2023-11-18T12:23:13;96049.09;;;18.34;48.75
66486;BME280;53303;47.476;8.084;2023-11-18T12:25:46;96042.22;;;18.30;48.37
66486;BME280;53303;47.476;8.084;2023-11-18T12:28:16;96033.25;;;18.35;48.76
66486;BME280;53303;47.476;8.084;2023-11-18T12:30:43;96030.22;;;18.33;48.66
66486;BME280;53303;47.476;8.084;2023-11-18T12:33:18;96034.22;;;18.32;48.66
66486;BME280;53303;47.476;8.084;2023-11-18T12:41:31;96037.25;;;18.34;48.14
66486;BME280;53303;47.476;8.084;2023-11-18T12:44:30;96030.97;;;18.33;48.54
66486;BME280;53303;47.476;8.084;2023-11-18T12:47:01;96022.19;;;18.35;48.51
66486;BME280;53303;47.476;8.084;2023-11-18T12:49:49;96016.13;;;18.31;48.52
66486;BME280;53303;47.476;8.084;2023-11-18T12:52:15;96017.44;;;18.35;48.40
66486;BME280;53303;47.476;8.084;2023-11-18T12:54:44;95970.94;;;18.13;48.54
66486;BME280;53303;47.476;8.084;2023-11-18T12:57:10;95999.34;;;18.34;48.18
66486;BME280;53303;47.476;8.084;2023-11-18T12:59:40;95994.09;;;18.36;48.75
66486;BME280;53303;47.476;8.084;2023-11-18T13:02:12;95979.63;;;18.26;48.45
66486;BME280;53303;47.476;8.084;2023-11-18T13:04:48;95995.31;;;18.35;48.41
66486;BME280;53303;47.476;8.084;2023-11-18T13:07:17;95990.00;;;18.32;48.43
66486;BME280;53303;47.476;8.084;2023-11-18T13:09:44;95992.09;;;18.37;48.38
66486;BME280;53303;47.476;8.084;2023-11-18T13:12:14;95992.09;;;18.37;48.24
66486;BME280;53303;47.476;8.084;2023-11-18T13:14:42;95996.88;;;18.36;48.38
66486;BME280;53303;47.476;8.084;2023-11-18T13:17:12;96000.09;;;18.35;48.35
66486;BME280;53303;47.476;8.084;2023-11-18T13:19:41;95993.31;;;18.36;48.44
66486;BME280;53303;47.476;8.084;2023-11-18T13:22:09;95996.06;;;18.36;48.31
66486;BME280;53303;47.476;8.084;2023-11-18T13:24:37;95988.56;;;18.36;48.37
66486;BME280;53303;47.476;8.084;2023-11-18T13:27:08;95993.31;;;18.36;48.32
66486;BME280;53303;47.476;8.084;2023-11-18T13:29:37;95967.56;;;18.24;48.45
66486;BME280;53303;47.476;8.084;2023-11-18T13:32:10;95984.28;;;18.35;48.26